Orrville, Ohio
Current Conditions -  °F | °C
As of 6:56 AM on Thursday 23 Oct 2014 (Local Time) from KBJJ Reporting Station
Overcast Overcast  
Wind Chill: 43°   Ceiling: 1400
Heat Index: 47°   Visibility: 10mi
Dew Point: 44°   Wind: 9mph
Humidity: 90%   Direction: 330°NNW
Pressure: 30.2"   Gusts: NA
Location:  40.84°N, 81.76°W
Report Text: KBJJ 231056Z AUTO 33008KT 10SM OVC014 08/07 A3020 RMK AO2 SLP232 T00830067 TSNO
Loading
Personal Weather Stations






























Interactive Weather Map
Tropical Storm Tracking
New forecast layout! Learn more

10-Day Weather Forecast

Advertisements
Track Severe Weather on mobile